createdAt,value
2022-12-11T00:00:49.553Z,100838.09
2022-12-11T00:03:17.094Z,100834.56
2022-12-11T00:05:44.990Z,100833.63
2022-12-11T00:08:12.441Z,100837.19
2022-12-11T00:10:39.100Z,100825.47
2022-12-11T00:13:05.692Z,100837.19
2022-12-11T00:15:32.250Z,100838.09
2022-12-11T00:17:58.712Z,100828.84
2022-12-11T00:20:25.325Z,100831.91
2022-12-11T00:22:51.789Z,100837.63
2022-12-11T00:25:18.428Z,100841.50
2022-12-11T00:27:46.769Z,100833.47
2022-12-11T00:30:14.695Z,100838.59
2022-12-11T00:32:44.155Z,100838.75
2022-12-11T00:35:11.391Z,100839.38
2022-12-11T00:37:38.068Z,100840.97
2022-12-11T00:40:04.987Z,100837.47
2022-12-11T00:42:31.463Z,100830.75
2022-12-11T00:44:57.973Z,100841.31
2022-12-11T00:47:24.425Z,100839.09
2022-12-11T00:49:50.873Z,100834.13
2022-12-11T00:52:17.978Z,100833.25
2022-12-11T00:54:45.008Z,100836.19
2022-12-11T00:57:11.473Z,100829.72
2022-12-11T00:59:38.476Z,100825.16
2022-12-11T01:02:04.937Z,100835.06
2022-12-11T01:04:32.372Z,100829.59
2022-12-11T01:06:58.955Z,100824.81
2022-12-11T01:09:43.793Z,100829.78
2022-12-11T01:12:10.245Z,100829.59
2022-12-11T01:14:36.813Z,100825.63
2022-12-11T01:17:03.361Z,100823.56
2022-12-11T01:19:30.117Z,100828.19
2022-12-11T01:21:56.642Z,100826.88
2022-12-11T01:24:23.135Z,100833.47
2022-12-11T01:26:49.580Z,100833.59
2022-12-11T01:29:16.050Z,100827.69
2022-12-11T01:31:42.534Z,100821.63
2022-12-11T01:34:08.985Z,100827.00
2022-12-11T01:36:35.478Z,100825.25
2022-12-11T01:39:02.023Z,100827.16
2022-12-11T01:41:29.158Z,100824.91
2022-12-11T01:43:57.619Z,100819.91
2022-12-11T01:46:24.913Z,100819.91
2022-12-11T01:48:51.748Z,100813.66
2022-12-11T01:51:18.358Z,100820.13
2022-12-11T01:53:51.486Z,100812.88
2022-12-11T01:56:18.470Z,100807.44
2022-12-11T01:58:52.361Z,100811.41
2022-12-11T02:01:28.314Z,100814.03
2022-12-11T02:03:56.404Z,100821.84
2022-12-11T02:06:31.245Z,100816.06
2022-12-11T02:08:57.853Z,100815.88
2022-12-11T02:11:35.019Z,100817.81
2022-12-11T02:14:40.173Z,100814.63
2022-12-11T02:17:28.247Z,100816.22
2022-12-11T02:20:22.766Z,100809.78
2022-12-11T02:22:49.706Z,100816.81
2022-12-11T02:25:32.974Z,100810.09
2022-12-11T02:28:14.710Z,100801.28
2022-12-11T02:30:42.789Z,100803.53
2022-12-11T02:33:13.669Z,100810.56
2022-12-11T02:35:44.164Z,100809.44
2022-12-11T02:38:13.822Z,100808.47
2022-12-11T02:40:42.622Z,100807.66
2022-12-11T02:43:13.505Z,100814.09
2022-12-11T02:45:42.475Z,100807.00
2022-12-11T02:48:11.670Z,100802.06
2022-12-11T02:50:45.795Z,100802.00
2022-12-11T02:53:15.994Z,100791.56
2022-12-11T02:55:43.950Z,100797.56
2022-12-11T02:58:18.054Z,100794.34
2022-12-11T03:00:46.064Z,100792.78
2022-12-11T03:03:13.216Z,100785.53
2022-12-11T03:05:41.917Z,100784.59
2022-12-11T03:08:08.781Z,100781.88
2022-12-11T03:10:35.282Z,100777.09
2022-12-11T03:13:03.064Z,100782.00
2022-12-11T03:15:48.587Z,100784.88
2022-12-11T03:18:20.651Z,100786.94
2022-12-11T03:21:05.699Z,100788.97
2022-12-11T03:23:36.536Z,100786.44
2022-12-11T03:26:10.626Z,100791.41
2022-12-11T03:28:47.095Z,100793.47
2022-12-11T03:31:26.475Z,100784.19
2022-12-11T03:33:57.546Z,100788.97
2022-12-11T03:36:30.285Z,100785.53
2022-12-11T03:39:01.768Z,100792.81
2022-12-11T03:41:31.201Z,100790.09
2022-12-11T03:43:58.988Z,100796.34
2022-12-11T03:46:31.860Z,100791.69
2022-12-11T03:49:03.092Z,100781.41
2022-12-11T03:51:32.404Z,100781.75
2022-12-11T03:54:00.123Z,100786.53
2022-12-11T03:56:30.293Z,100781.84
2022-12-11T03:58:56.774Z,100784.25
2022-12-11T04:01:23.350Z,100779.13
2022-12-11T04:03:49.901Z,100797.63
2022-12-11T04:06:16.434Z,100786.59
2022-12-11T04:08:42.879Z,100794.88
2022-12-11T04:11:29.231Z,100783.19
2022-12-11T04:14:14.086Z,100787.69
2022-12-11T04:16:40.497Z,100777.78
2022-12-11T04:19:25.219Z,100777.72
2022-12-11T04:22:10.022Z,100776.47
2022-12-11T04:24:36.431Z,100768.19
2022-12-11T04:27:02.938Z,100772.50
2022-12-11T04:29:29.444Z,100775.00
2022-12-11T04:31:55.953Z,100765.56
2022-12-11T04:34:22.594Z,100767.53
2022-12-11T04:36:49.007Z,100770.03
2022-12-11T04:39:15.587Z,100759.78
2022-12-11T04:41:42.527Z,100763.09
2022-12-11T04:44:09.000Z,100765.50
2022-12-11T04:46:36.050Z,100770.94
2022-12-11T04:49:02.622Z,100761.78
2022-12-11T04:51:29.500Z,100756.66
2022-12-11T04:53:56.063Z,100759.38
2022-12-11T04:56:22.711Z,100759.38
2022-12-11T04:58:49.438Z,100757.47
2022-12-11T05:01:19.165Z,100760.06
2022-12-11T05:03:46.446Z,100761.63
2022-12-11T05:06:13.599Z,100766.75
2022-12-11T05:08:41.898Z,100764.91
2022-12-11T05:11:10.763Z,100766.16
2022-12-11T05:13:37.557Z,100762.91
2022-12-11T05:16:06.068Z,100760.19
2022-12-11T05:18:32.679Z,100760.19
2022-12-11T05:21:01.611Z,100758.59
2022-12-11T05:23:28.914Z,100752.69
2022-12-11T05:25:58.357Z,100755.84
2022-12-11T05:28:28.411Z,100756.00
2022-12-11T05:30:59.776Z,100755.66
2022-12-11T05:33:26.497Z,100751.81
2022-12-11T05:35:53.276Z,100757.38
2022-12-11T05:38:20.049Z,100755.66
2022-12-11T05:41:15.311Z,100758.16
2022-12-11T05:43:42.549Z,100757.13
2022-12-11T05:46:10.825Z,100756.81
2022-12-11T05:48:38.203Z,100754.19
2022-12-11T05:51:06.677Z,100752.94
2022-12-11T05:53:33.356Z,100757.25
2022-12-11T05:56:08.748Z,100751.94
2022-12-11T05:58:35.534Z,100757.25
2022-12-11T06:01:02.753Z,100747.81
2022-12-11T06:03:29.235Z,100756.47
2022-12-11T06:05:55.799Z,100741.81
2022-12-11T06:08:22.265Z,100744.09
2022-12-11T06:10:50.142Z,100748.88
2022-12-11T06:13:16.874Z,100746.94
2022-12-11T06:15:43.386Z,100733.63
2022-12-11T06:18:10.655Z,100741.03
2022-12-11T06:20:37.339Z,100734.78
2022-12-11T06:23:03.800Z,100733.63
2022-12-11T06:25:30.743Z,100735.25
2022-12-11T06:27:57.212Z,100729.00
2022-12-11T06:30:23.964Z,100727.84
2022-12-11T06:33:05.251Z,100731.50
2022-12-11T06:35:31.694Z,100737.75
2022-12-11T06:37:59.282Z,100737.97
2022-12-11T06:40:25.715Z,100736.16
2022-12-11T06:42:52.130Z,100730.25
2022-12-11T06:45:18.543Z,100733.44
2022-12-11T06:47:44.979Z,100744.34
2022-12-11T06:50:11.583Z,100740.47
2022-12-11T06:52:38.024Z,100745.59
2022-12-11T06:55:05.079Z,100744.00
2022-12-11T06:57:31.527Z,100739.69
2022-12-11T06:59:57.996Z,100739.22
2022-12-11T07:02:24.476Z,100741.63
2022-12-11T07:04:55.078Z,100747.53
2022-12-11T07:07:21.865Z,100749.47
2022-12-11T07:09:48.397Z,100752.63
2022-12-11T07:12:14.899Z,100750.38
2022-12-11T07:14:41.315Z,100746.84
2022-12-11T07:17:07.871Z,100745.75
2022-12-11T07:19:34.406Z,100752.31
2022-12-11T07:22:00.829Z,100751.53
2022-12-11T07:24:27.286Z,100750.53
2022-12-11T07:26:53.776Z,100748.91
2022-12-11T07:29:20.226Z,100740.72
2022-12-11T07:31:46.803Z,100741.22
2022-12-11T07:34:14.205Z,100745.06
2022-12-11T07:36:41.110Z,100747.44
2022-12-11T07:39:08.981Z,100751.78
2022-12-11T07:41:35.467Z,100758.34
2022-12-11T07:44:03.466Z,100745.66
2022-12-11T07:46:32.284Z,100755.75
2022-12-11T07:49:00.828Z,100754.84
2022-12-11T07:51:30.575Z,100759.16
2022-12-11T07:53:59.802Z,100755.97
2022-12-11T07:56:27.504Z,100752.44
2022-12-11T07:58:54.380Z,100754.63
2022-12-11T08:01:26.940Z,100752.69
2022-12-11T08:03:54.397Z,100755.63
2022-12-11T08:06:29.678Z,100750.97
2022-12-11T08:08:57.550Z,100753.69
2022-12-11T08:11:24.850Z,100757.47
2022-12-11T08:13:51.495Z,100756.81
2022-12-11T08:16:18.326Z,100754.28
2022-12-11T08:18:46.566Z,100754.94
2022-12-11T08:21:18.563Z,100755.09
2022-12-11T08:23:45.916Z,100764.53
2022-12-11T08:26:21.698Z,100754.94
2022-12-11T08:28:48.244Z,100767.47
2022-12-11T08:31:16.468Z,100755.91
2022-12-11T08:33:43.398Z,100766.00
2022-12-11T08:36:12.373Z,100757.47
2022-12-11T08:38:39.234Z,100756.66
2022-12-11T08:41:14.844Z,100755.09
2022-12-11T08:43:41.543Z,100757.69
2022-12-11T08:46:08.964Z,100755.75
2022-12-11T08:48:37.731Z,100756.56
2022-12-11T08:51:06.157Z,100756.91
2022-12-11T08:53:33.649Z,100758.00
2022-12-11T08:56:11.923Z,100752.56
2022-12-11T08:58:38.775Z,100749.81
2022-12-11T09:01:10.706Z,100750.84
2022-12-11T09:03:38.525Z,100747.91
2022-12-11T09:06:22.140Z,100747.44
2022-12-11T09:08:52.516Z,100748.03
2022-12-11T09:11:22.690Z,100754.94
2022-12-11T09:13:49.510Z,100754.94
2022-12-11T09:16:18.920Z,100750.31
2022-12-11T09:18:47.298Z,100756.91
2022-12-11T09:21:17.023Z,100759.63
2022-12-11T09:23:44.239Z,100755.38
2022-12-11T09:26:13.646Z,100748.91
2022-12-11T09:28:45.764Z,100758.00
2022-12-11T09:31:19.526Z,100758.34
2022-12-11T09:33:46.918Z,100754.16
2022-12-11T09:36:13.564Z,100759.63
2022-12-11T09:38:40.537Z,100760.28
2022-12-11T09:41:22.522Z,100763.47
2022-12-11T09:43:54.701Z,100753.03
2022-12-11T09:46:24.549Z,100752.56
2022-12-11T09:48:53.499Z,100753.03
2022-12-11T09:51:24.161Z,100746.19
2022-12-11T09:53:51.695Z,100752.69
2022-12-11T09:56:26.251Z,100735.53
2022-12-11T09:58:52.663Z,100747.81
2022-12-11T10:01:34.675Z,100749.75
2022-12-11T10:04:25.740Z,100759.19
2022-12-11T10:07:10.074Z,100750.06
2022-12-11T10:10:02.857Z,100749.22
2022-12-11T10:12:32.340Z,100753.28
2022-12-11T10:15:17.180Z,100755.19
2022-12-11T10:17:44.694Z,100744.28
2022-12-11T10:20:20.626Z,100751.03
2022-12-11T10:22:48.732Z,100739.38
2022-12-11T10:25:37.102Z,100737.25
2022-12-11T10:28:17.094Z,100736.44
2022-12-11T10:30:54.576Z,100734.31
2022-12-11T10:33:26.900Z,100732.16
2022-12-11T10:35:55.623Z,100725.25
2022-12-11T10:38:34.440Z,100722.63
2022-12-11T10:41:04.335Z,100719.88
2022-12-11T10:43:42.278Z,100719.09
2022-12-11T10:46:20.156Z,100725.09
2022-12-11T10:48:53.884Z,100724.44
2022-12-11T10:51:40.590Z,100714.66
2022-12-11T10:54:18.090Z,100721.13
2022-12-11T10:56:48.287Z,100719.22
2022-12-11T10:59:30.691Z,100716.47
2022-12-11T11:01:58.042Z,100714.44
2022-12-11T11:04:31.923Z,100711.94
2022-12-11T11:07:26.413Z,100718.19
2022-12-11T11:10:11.128Z,100709.13
2022-12-11T11:12:47.096Z,100713.75
2022-12-11T11:15:16.319Z,100712.84
2022-12-11T11:17:55.987Z,100712.28
2022-12-11T11:20:29.678Z,100710.47
2022-12-11T11:22:59.605Z,100712.75
2022-12-11T11:25:28.969Z,100706.94
2022-12-11T11:28:05.217Z,100705.81
2022-12-11T11:30:38.553Z,100705.56
2022-12-11T11:33:13.787Z,100702.06
2022-12-11T11:35:51.294Z,100697.53
2022-12-11T11:38:21.084Z,100690.59
2022-12-11T11:41:07.595Z,100691.25
2022-12-11T11:43:51.132Z,100698.09
2022-12-11T11:46:17.573Z,100702.41
2022-12-11T11:49:09.965Z,100696.28
2022-12-11T11:51:41.624Z,100692.28
2022-12-11T11:54:21.133Z,100692.75
2022-12-11T11:56:53.975Z,100689.69
2022-12-11T11:59:49.390Z,100695.13
2022-12-11T12:02:17.932Z,100692.63
2022-12-11T12:04:46.448Z,100685.38
2022-12-11T12:07:34.481Z,100687.06
2022-12-11T12:10:18.743Z,100682.63
2022-12-11T12:12:57.491Z,100687.16
2022-12-11T12:15:43.776Z,100688.66
2022-12-11T12:18:32.100Z,100682.97
2022-12-11T12:21:12.419Z,100681.06
2022-12-11T12:24:05.478Z,100679.00
2022-12-11T12:26:35.253Z,100676.03
2022-12-11T12:29:13.076Z,100671.97
2022-12-11T12:32:01.081Z,100668.31
2022-12-11T12:34:57.314Z,100669.91
2022-12-11T12:37:30.153Z,100667.63
2022-12-11T12:40:08.595Z,100666.97
2022-12-11T12:42:46.240Z,100662.28
2022-12-11T12:45:12.928Z,100656.47
2022-12-11T12:47:43.205Z,100655.56
2022-12-11T12:50:17.105Z,100665.81
2022-12-11T12:52:44.730Z,100665.81
2022-12-11T12:55:18.912Z,100666.50
2022-12-11T12:57:52.507Z,100660.59
2022-12-11T13:00:38.877Z,100662.97
2022-12-11T13:03:20.268Z,100649.56
2022-12-11T13:06:02.396Z,100658.97
2022-12-11T13:08:34.771Z,100657.06
2022-12-11T13:11:05.349Z,100658.19
2022-12-11T13:13:41.435Z,100655.13
2022-12-11T13:16:25.837Z,100649.44
2022-12-11T13:18:53.254Z,100645.78
2022-12-11T13:21:48.614Z,100643.19
2022-12-11T13:24:25.664Z,100650.00
2022-12-11T13:26:52.433Z,100643.75
2022-12-11T13:29:51.400Z,100645.91
2022-12-11T13:32:17.798Z,100650.22
2022-12-11T13:34:53.300Z,100649.44
2022-12-11T13:37:33.035Z,100655.81
2022-12-11T13:40:03.000Z,100650.34
2022-12-11T13:42:49.305Z,100651.94
2022-12-11T13:45:23.421Z,100651.50
2022-12-11T13:47:50.393Z,100646.47
2022-12-11T13:50:25.063Z,100655.91
2022-12-11T13:53:00.552Z,100651.25
2022-12-11T13:55:30.539Z,100648.38
2022-12-11T13:57:58.298Z,100651.25
2022-12-11T14:00:32.140Z,100652.81
2022-12-11T14:03:03.113Z,100653.28
2022-12-11T14:05:29.931Z,100653.63
2022-12-11T14:08:00.551Z,100655.91
2022-12-11T14:10:32.459Z,100654.78
2022-12-11T14:13:31.061Z,100656.72
2022-12-11T14:15:57.669Z,100655.56
2022-12-11T14:18:29.413Z,100660.94
2022-12-11T14:21:01.938Z,100655.81
2022-12-11T14:23:33.696Z,100664.09
2022-12-11T14:26:04.927Z,100659.44
2022-12-11T14:28:38.845Z,100663.66
2022-12-11T14:31:06.530Z,100661.59
2022-12-11T14:33:38.567Z,100664.66
2022-12-11T14:36:06.717Z,100659.22
2022-12-11T14:38:38.146Z,100668.56
2022-12-11T14:41:20.154Z,100668.56
2022-12-11T14:43:51.749Z,100675.59
2022-12-11T14:46:24.004Z,100679.34
2022-12-11T14:49:00.599Z,100671.63
2022-12-11T14:51:31.881Z,100676.50
2022-12-11T14:54:00.120Z,100677.19
2022-12-11T14:56:29.171Z,100683.56
2022-12-11T14:59:00.704Z,100680.03
2022-12-11T15:01:38.686Z,100692.56
2022-12-11T15:04:14.359Z,100688.00
2022-12-11T15:06:46.889Z,100684.22
2022-12-11T15:09:35.612Z,100692.19
2022-12-11T15:12:17.680Z,100687.88
2022-12-11T15:14:50.202Z,100691.50
2022-12-11T15:17:17.601Z,100694.56
2022-12-11T16:00:21.126Z,100698.19
2022-12-11T16:02:47.963Z,100701.16
2022-12-11T16:05:14.990Z,100703.41
2022-12-11T16:07:41.588Z,100704.22
2022-12-11T16:10:13.329Z,100700.47
2022-12-11T16:12:42.536Z,100702.41
2022-12-11T16:15:10.528Z,100704.69
2022-12-11T16:17:37.318Z,100700.59
2022-12-11T16:20:04.316Z,100696.28
2022-12-11T16:22:31.128Z,100703.31
2022-12-11T16:24:57.569Z,100699.47
2022-12-11T16:27:24.465Z,100699.91
2022-12-11T16:29:51.154Z,100691.72
2022-12-11T16:32:18.587Z,100694.44
2022-12-11T16:34:45.053Z,100688.09
2022-12-11T16:37:11.936Z,100693.00
2022-12-11T16:39:38.576Z,100688.31
2022-12-11T16:42:06.031Z,100683.34
2022-12-11T16:44:32.850Z,100684.00
2022-12-11T16:46:59.332Z,100695.03
2022-12-11T16:49:25.860Z,100699.03
2022-12-11T16:51:52.375Z,100690.94
2022-12-11T16:54:19.016Z,100688.44
2022-12-11T16:56:45.506Z,100691.94
2022-12-11T16:59:12.928Z,100676.72
2022-12-11T17:01:39.951Z,100678.31
2022-12-11T17:04:06.598Z,100684.81
2022-12-11T17:06:33.084Z,100679.69
2022-12-11T17:08:59.598Z,100678.41
2022-12-11T17:11:26.251Z,100680.38
2022-12-11T17:13:55.300Z,100684.69
2022-12-11T17:16:24.801Z,100676.03
2022-12-11T17:18:51.837Z,100673.78
2022-12-11T17:21:20.143Z,100686.59
2022-12-11T17:23:46.644Z,100686.75
2022-12-11T17:26:13.122Z,100691.03
2022-12-11T17:28:40.156Z,100691.50
2022-12-11T17:31:08.657Z,100692.66
2022-12-11T17:33:35.532Z,100686.59
2022-12-11T17:36:04.406Z,100694.91
2022-12-11T17:38:31.295Z,100691.84
2022-12-11T17:40:58.293Z,100698.13
2022-12-11T17:43:24.857Z,100696.16
2022-12-11T17:45:52.629Z,100688.78
2022-12-11T17:48:22.383Z,100694.34
2022-12-11T17:50:50.023Z,100688.88
2022-12-11T17:53:18.274Z,100693.66
2022-12-11T17:55:46.112Z,100697.53
2022-12-11T17:58:15.896Z,100697.88
2022-12-11T18:00:44.929Z,100689.22
2022-12-11T18:03:12.715Z,100698.69
2022-12-11T18:05:47.948Z,100694.00
2022-12-11T18:08:16.580Z,100694.25
2022-12-11T18:10:43.424Z,100699.38
2022-12-11T18:13:10.697Z,100690.38
2022-12-11T18:15:37.690Z,100690.38
2022-12-11T18:18:05.562Z,100696.97
2022-12-11T18:20:33.005Z,100692.66
2022-12-11T18:22:59.991Z,100691.38
2022-12-11T18:25:27.239Z,100689.94
2022-12-11T18:27:57.672Z,100687.63
2022-12-11T18:30:25.348Z,100698.91
2022-12-11T18:32:52.102Z,100695.72
2022-12-11T18:35:18.658Z,100685.16
2022-12-11T18:37:45.179Z,100690.63
2022-12-11T18:40:14.676Z,100693.22
2022-12-11T18:42:41.179Z,100696.28
2022-12-11T18:45:08.303Z,100690.03
2022-12-11T18:47:34.780Z,100690.81
2022-12-11T18:50:05.800Z,100689.66
2022-12-11T18:52:34.506Z,100696.75
2022-12-11T18:55:00.970Z,100696.41
2022-12-11T18:57:27.460Z,100692.19
2022-12-11T18:59:54.011Z,100694.91
2022-12-11T19:02:21.548Z,100698.13
2022-12-11T19:04:48.255Z,100697.75
2022-12-11T19:07:14.727Z,100677.50
2022-12-11T19:09:46.231Z,100698.13
2022-12-11T19:12:14.514Z,100693.91
2022-12-11T19:14:41.068Z,100695.81
2022-12-11T19:17:07.587Z,100695.25
2022-12-11T19:19:34.140Z,100701.41
2022-12-11T19:22:00.552Z,100697.19
2022-12-11T19:24:27.130Z,100706.66
2022-12-11T19:26:53.625Z,100712.88
2022-12-11T19:29:29.420Z,100706.31
2022-12-11T19:31:56.330Z,100703.22
2022-12-11T19:34:23.567Z,100695.81
2022-12-11T19:36:50.578Z,100705.94
2022-12-11T19:39:17.946Z,100700.38
2022-12-11T19:41:44.382Z,100698.31
2022-12-11T19:44:11.634Z,100701.53
2022-12-11T19:46:38.838Z,100708.22
2022-12-11T19:49:05.834Z,100698.13
2022-12-11T19:51:36.415Z,100705.16
2022-12-11T19:54:04.000Z,100685.59
2022-12-11T19:56:31.369Z,100702.44
2022-12-11T19:58:58.042Z,100709.47
2022-12-11T20:01:28.765Z,100704.69
2022-12-11T20:03:58.024Z,100705.50
2022-12-11T20:06:24.681Z,100703.91
2022-12-11T20:08:51.189Z,100703.09
2022-12-11T20:11:19.155Z,100709.38
2022-12-11T20:13:49.950Z,100710.97
2022-12-11T20:16:20.005Z,100710.16
2022-12-11T20:18:55.728Z,100708.66
2022-12-11T20:21:22.267Z,100693.53
2022-12-11T20:23:49.112Z,100704.59
2022-12-11T20:26:18.844Z,100711.50
2022-12-11T20:28:47.956Z,100708.09
2022-12-11T20:31:20.366Z,100696.28
2022-12-11T20:33:49.038Z,100702.88
2022-12-11T20:36:17.980Z,100710.81
2022-12-11T20:38:45.492Z,100709.72
2022-12-11T20:41:17.104Z,100702.53
2022-12-11T20:43:44.542Z,100702.19
2022-12-11T20:46:17.246Z,100695.59
2022-12-11T20:48:45.481Z,100702.19
2022-12-11T20:51:16.780Z,100692.06
2022-12-11T20:53:45.534Z,100691.28
2022-12-11T20:56:16.963Z,100692.06
2022-12-11T20:58:45.673Z,100684.34
2022-12-11T21:01:20.780Z,100684.81
2022-12-11T21:03:47.848Z,100690.63
2022-12-11T21:06:45.107Z,100691.03
2022-12-11T21:09:16.776Z,100698.13
2022-12-11T21:11:43.800Z,100691.84
2022-12-11T21:14:10.839Z,100693.78
2022-12-11T21:16:38.305Z,100698.78
2022-12-11T21:19:05.887Z,100697.66
2022-12-11T21:21:42.586Z,100701.53
2022-12-11T21:24:15.290Z,100701.97
2022-12-11T21:26:42.282Z,100695.72
2022-12-11T21:29:09.013Z,100688.66
2022-12-11T21:31:35.635Z,100692.41
2022-12-11T21:34:02.172Z,100699.13
2022-12-11T21:36:28.624Z,100701.88
2022-12-11T21:38:55.130Z,100695.94
2022-12-11T21:41:23.810Z,100701.88
2022-12-11T21:44:56.604Z,100695.13
2022-12-11T21:46:39.428Z,100700.97
2022-12-11T21:49:06.047Z,100702.41
2022-12-11T21:51:38.545Z,100698.56
2022-12-11T21:54:10.204Z,100699.00
2022-12-11T21:56:36.658Z,100696.75
2022-12-11T21:59:03.642Z,100701.88
2022-12-11T22:01:34.912Z,100702.97
2022-12-11T22:04:02.298Z,100705.72
2022-12-11T22:06:28.740Z,100706.03
2022-12-11T22:08:55.195Z,100711.16
2022-12-11T22:11:26.152Z,100712.31
2022-12-11T22:13:52.749Z,100713.13
2022-12-11T22:16:19.354Z,100714.22
2022-12-11T22:18:46.291Z,100715.38
2022-12-11T22:21:12.993Z,100706.16
2022-12-11T22:23:40.682Z,100718.78
2022-12-11T22:26:09.340Z,100715.28
2022-12-11T22:28:36.153Z,100719.25
2022-12-11T22:31:02.958Z,100717.31
2022-12-11T22:33:29.573Z,100724.22
2022-12-11T22:36:00.347Z,100721.84
2022-12-11T22:38:27.039Z,100734.72
2022-12-11T22:40:54.280Z,100733.09
2022-12-11T22:43:21.642Z,100728.91
2022-12-11T22:45:48.087Z,100723.47
2022-12-11T22:48:14.583Z,100724.00
2022-12-11T22:50:43.373Z,100720.94
2022-12-11T22:53:10.094Z,100724.91
2022-12-11T22:55:39.481Z,100729.59
2022-12-11T22:58:06.795Z,100719.91
2022-12-11T23:00:33.220Z,100718.34
2022-12-11T23:02:59.768Z,100715.94
2022-12-11T23:05:26.408Z,100718.69
2022-12-11T23:07:53.029Z,100723.78
2022-12-11T23:10:19.681Z,100726.53
2022-12-11T23:12:46.125Z,100730.84
2022-12-11T23:15:13.059Z,100725.38
2022-12-11T23:17:39.847Z,100719.13
2022-12-11T23:20:07.077Z,100737.88
2022-12-11T23:22:34.006Z,100729.25
2022-12-11T23:25:01.172Z,100737.88
2022-12-11T23:27:28.170Z,100731.16
2022-12-11T23:29:55.209Z,100733.56
2022-12-11T23:32:21.749Z,100732.75
2022-12-11T23:34:48.316Z,100739.03
2022-12-11T23:37:15.425Z,100734.72
2022-12-11T23:39:41.882Z,100735.16
2022-12-11T23:42:09.381Z,100733.91
2022-12-11T23:44:35.827Z,100728.34
2022-12-11T23:47:02.239Z,100725.63
2022-12-11T23:49:28.726Z,100724.66
2022-12-11T23:51:56.034Z,100724.00
2022-12-11T23:54:22.510Z,100721.94
2022-12-11T23:56:48.967Z,100719.88
2022-12-11T23:59:15.595Z,100722.28
